Latest Weather Observations for Adele Island

IDW60801

Issued at 11:32 am WST Monday 8 February 2016 (issued every 30 minutes, with the page automatically refreshed every 10 minutes)

About weather observations | Map of weather stations | Latest weather observations for WA | Other Formats
Station Details ID: 200735 Name: ADELE ISLAND Lat: -15.51 Lon: 123.16 Height: 4.6 m
Data from the previous 72 hours. | See also: Recent months at Adele Island
Date/Time
WST
Temp
°C
App
Temp
°C
Dew
Point
Rel
Hum
%
Delta-T
°C
Wind Press
QNH
hPa
Press
MSL
hPa
Rain
since 9 am
mm
Dir
 
Spd
km/h
Gust
km/h
Spd
kts
Gust
kts
08/11:30am - - - - - WSW 15 19 8 10 1009.0 1008.9 -
08/11:00am - - - - - WSW 13 19 7 10 1009.2 1009.1 -
08/10:30am - - - - - WSW 15 19 8 10 1009.5 1009.4 -
08/10:00am - - - - - SW 13 17 7 9 1009.7 1009.6 -
08/09:30am - - - - - WSW 15 17 8 9 1009.9 1009.8 -
08/09:00am - - - - - SSE 9 15 5 8 1010.2 1010.1 -
08/08:30am - - - - - SSE 13 19 7 10 1010.3 1010.2 -
08/08:00am - - - - - S 13 15 7 8 1010.1 1010.0 -
08/07:30am - - - - - S 11 13 6 7 1009.9 1009.8 -
08/07:00am - - - - - SSW 6 9 3 5 1009.6 1009.5 -
08/06:30am - - - - - SSW 2 4 1 2 1009.4 1009.3 -
08/06:00am - - - - - SW 7 9 4 5 1009.1 1009.0 -
08/05:30am - - - - - SW 11 13 6 7 1009.0 1008.9 -
08/05:00am - - - - - SW 11 13 6 7 1008.7 1008.6 -
08/04:30am - - - - - WSW 11 11 6 6 1008.5 1008.4 -
08/04:00am - - - - - SW 11 13 6 7 1008.5 1008.4 -
08/03:30am - - - - - SW 13 13 7 7 1008.3 1008.2 -
08/03:00am - - - - - SW 13 15 7 8 1008.5 1008.4 -
08/02:30am - - - - - WSW 11 13 6 7 1008.3 1008.2 -
08/02:00am - - - - - SW 11 13 6 7 1008.7 1008.6 -
08/01:30am - - - - - WSW 17 19 9 10 1008.5 1008.4 -
08/01:00am - - - - - SW 17 20 9 11 1008.9 1008.8 -
08/12:30am - - - - - SW 19 22 10 12 1009.2 1009.1 -
08/12:00am - - - - - SW 19 24 10 13 1009.7 1009.6 -
 
Date/Time
WST
Temp
°C
App
Temp
°C
Dew
Point
Rel
Hum
%
Delta-T
°C
Wind Press
QNH
hPa
Press
MSL
hPa
Rain
since 9 am
mm
Dir
 
Spd
km/h
Gust
km/h
Spd
kts
Gust
kts
07/11:30pm - - - - - SW 20 26 11 14 1010.1 1010.0 -
07/11:00pm - - - - - WSW 19 24 10 13 1010.2 1010.1 -
07/10:30pm - - - - - WSW 20 24 11 13 1010.2 1010.1 -
07/10:00pm - - - - - WSW 19 22 10 12 1010.2 1010.1 -
07/09:30pm - - - - - W 19 22 10 12 1010.0 1009.9 -
07/09:00pm - - - - - W 19 24 10 13 1009.7 1009.6 -
07/08:30pm - - - - - W 19 22 10 12 1009.5 1009.4 -
07/08:00pm - - - - - W 15 20 8 11 1009.4 1009.3 -
07/07:30pm - - - - - WSW 17 22 9 12 1008.9 1008.8 -
07/07:00pm - - - - - WSW 17 20 9 11 1008.3 1008.2 -
07/06:30pm - - - - - WSW 19 22 10 12 1007.9 1007.8 -
07/06:00pm - - - - - WSW 17 20 9 11 1007.6 1007.5 -
07/05:30pm - - - - - WSW 17 20 9 11 1007.1 1007.0 -
07/05:00pm - - - - - WSW 17 20 9 11 1006.8 1006.7 -
07/04:30pm - - - - - WSW 19 22 10 12 1006.5 1006.4 -
07/04:00pm - - - - - WSW 19 24 10 13 1006.3 1006.2 -
07/03:30pm - - - - - WSW 17 22 9 12 1006.4 1006.3 -
07/03:00pm - - - - - WSW 17 22 9 12 1006.4 1006.3 -
07/02:30pm - - - - - WSW 17 20 9 11 1006.7 1006.6 -
07/02:00pm - - - - - W 17 20 9 11 1007.2 1007.1 -
07/01:30pm - - - - - W 15 19 8 10 1007.5 1007.4 -
07/01:00pm - - - - - SW 17 20 9 11 1007.9 1007.8 -
07/12:30pm - - - - - SSW 19 26 10 14 1008.1 1008.0 -
07/12:00pm - - - - - SW 19 26 10 14 1008.3 1008.2 -
07/11:30am - - - - - SW 20 28 11 15 1008.7 1008.6 -
07/11:00am - - - - - SSW 20 28 11 15 1008.6 1008.5 -
07/10:30am - - - - - SW 19 26 10 14 1008.6 1008.5 -
07/10:00am - - - - - WSW 19 22 10 12 1008.7 1008.6 -
07/09:30am - - - - - WSW 17 20 9 11 1008.9 1008.8 -
07/09:00am - - - - - SW 17 20 9 11 1009.0 1008.9 -
07/08:30am - - - - - SW 17 20 9 11 1009.0 1008.9 -
07/08:00am - - - - - SSW 20 24 11 13 1008.8 1008.7 -
07/07:30am - - - - - S 17 20 9 11 1008.5 1008.4 -
07/07:00am - - - - - S 17 20 9 11 1008.3 1008.2 -
07/06:30am - - - - - SSW 15 19 8 10 1008.0 1007.9 -
07/06:00am - - - - - SSW 15 17 8 9 1007.7 1007.6 -
07/05:30am - - - - - SW 13 17 7 9 1007.3 1007.2 -
07/05:00am - - - - - SW 17 19 9 10 1007.2 1007.1 -
07/04:30am - - - - - SW 15 19 8 10 1006.9 1006.8 -
07/04:00am - - - - - SW 17 20 9 11 1006.7 1006.6 -
07/03:30am - - - - - SW 17 20 9 11 1006.5 1006.4 -
07/03:00am - - - - - SW 19 22 10 12 1006.5 1006.4 -
07/02:30am - - - - - SW 17 20 9 11 1006.5 1006.4 -
07/02:00am - - - - - SW 19 22 10 12 1006.5 1006.4 -
07/01:30am - - - - - SW 19 22 10 12 1006.5 1006.4 -
07/01:00am - - - - - SW 20 24 11 13 1006.8 1006.7 -
07/12:30am - - - - - SW 22 28 12 15 1007.1 1007.0 -
07/12:00am - - - - - SW 20 28 11 15 1007.5 1007.4 -
 
Date/Time
WST
Temp
°C
App
Temp
°C
Dew
Point
Rel
Hum
%
Delta-T
°C
Wind Press
QNH
hPa
Press
MSL
hPa
Rain
since 9 am
mm
Dir
 
Spd
km/h
Gust
km/h
Spd
kts
Gust
kts
06/11:30pm - - - - - WSW 20 26 11 14 1007.7 1007.6 -
06/11:00pm - - - - - WSW 20 24 11 13 1007.9 1007.8 -
06/10:30pm - - - - - WSW 20 26 11 14 1008.1 1008.0 -
06/10:00pm - - - - - SW 24 28 13 15 1008.4 1008.3 -
06/09:30pm - - - - - WSW 24 30 13 16 1008.2 1008.1 -
06/09:00pm - - - - - WSW 24 28 13 15 1008.0 1007.9 -
06/08:30pm - - - - - SW 22 30 12 16 1007.8 1007.7 -
06/08:00pm - - - - - SW 22 26 12 14 1007.6 1007.5 -
06/07:30pm - - - - - SW 24 30 13 16 1007.2 1007.1 -
06/07:00pm - - - - - SW 26 32 14 17 1006.7 1006.6 -
06/06:30pm - - - - - SW 26 32 14 17 1006.3 1006.2 -
06/06:00pm - - - - - WSW 24 32 13 17 1006.0 1005.9 -
06/05:30pm - - - - - WSW 24 32 13 17 1005.9 1005.8 -
06/05:00pm - - - - - WSW 24 32 13 17 1005.7 1005.6 -
06/04:30pm - - - - - WSW 24 30 13 16 1005.8 1005.7 -
06/04:00pm - - - - - WSW 24 30 13 16 1005.8 1005.7 -
06/03:30pm - - - - - SW 24 30 13 16 1005.7 1005.6 -
06/03:00pm - - - - - WSW 24 30 13 16 1006.0 1005.9 -
06/02:30pm - - - - - WSW 20 24 11 13 1006.3 1006.2 -
06/02:00pm - - - - - WSW 20 24 11 13 1006.6 1006.5 -
06/01:30pm - - - - - WSW 20 24 11 13 1007.0 1006.9 -
06/01:00pm - - - - - WSW 20 26 11 14 1007.2 1007.1 -
06/12:30pm - - - - - WSW 17 20 9 11 1007.6 1007.5 -
06/12:00pm - - - - - SW 17 20 9 11 1008.2 1008.1 -
06/11:30am - - - - - SW 19 24 10 13 1008.6 1008.5 -
06/11:00am - - - - - SSW 20 26 11 14 1008.6 1008.5 -
06/10:30am - - - - - SSW 22 28 12 15 1008.9 1008.8 -
06/10:00am - - - - - SSW 20 26 11 14 1009.1 1009.0 -
06/09:30am - - - - - SSW 19 24 10 13 1009.0 1008.9 -
06/09:00am - - - - - ESE 9 13 5 7 1009.4 1009.3 -
06/08:30am - - - - - SE 20 28 11 15 1009.5 1009.4 -
06/08:00am - - - - - ESE 32 43 17 23 1009.8 1009.7 -
06/07:30am - - - - - ESE 43 54 23 29 1010.0 1009.9 -
06/07:28am - - - - - E 43 50 23 27 1010.0 1009.9 -
06/07:00am - - - - - ENE 37 46 20 25 1009.8 1009.7 -
06/06:39am - - - - - E 13 37 7 20 1009.8 1009.7 -
06/06:30am - - - - - E 4 7 2 4 1009.5 1009.4 -
06/06:00am - - - - - SE 32 43 17 23 1008.9 1008.8 -
06/05:30am - - - - - SSW 20 28 11 15 1008.2 1008.1 -
06/05:00am - - - - - WSW 20 28 11 15 1007.8 1007.7 -
06/04:30am - - - - - WSW 22 26 12 14 1007.6 1007.5 -
06/04:00am - - - - - WSW 22 28 12 15 1007.4 1007.3 -
06/03:30am - - - - - W 20 26 11 14 1007.2 1007.1 -
06/03:00am - - - - - WSW 22 28 12 15 1007.3 1007.2 -
06/02:30am - - - - - WSW 24 28 13 15 1007.2 1007.1 -
06/02:00am - - - - - W 20 28 11 15 1007.1 1007.0 -
06/01:30am - - - - - W 17 22 9 12 1007.3 1007.2 -
06/01:00am - - - - - WNW 20 24 11 13 1007.6 1007.5 -
06/12:30am - - - - - W 19 24 10 13 1007.9 1007.8 -
06/12:00am - - - - - W 17 22 9 12 1008.2 1008.1 -
 
Date/Time
WST
Temp
°C
App
Temp
°C
Dew
Point
Rel
Hum
%
Delta-T
°C
Wind Press
QNH
hPa
Press
MSL
hPa
Rain
since 9 am
mm
Dir
 
Spd
km/h
Gust
km/h
Spd
kts
Gust
kts
05/11:30pm - - - - - W 20 24 11 13 1008.5 1008.4 -
05/11:00pm - - - - - W 20 26 11 14 1008.6 1008.5 -
05/10:30pm - - - - - WNW 19 22 10 12 1008.5 1008.4 -
05/10:00pm - - - - - WNW 19 24 10 13 1008.5 1008.4 -
05/09:30pm - - - - - WNW 20 24 11 13 1008.4 1008.3 -
05/09:00pm - - - - - W 17 20 9 11 1008.4 1008.3 -
05/08:30pm - - - - - WNW 17 22 9 12 1008.1 1008.0 -
05/08:00pm - - - - - WNW 20 24 11 13 1007.9 1007.8 -
05/07:30pm - - - - - WNW 19 24 10 13 1007.4 1007.3 -
05/07:00pm - - - - - NW 19 22 10 12 1007.2 1007.1 -
05/06:30pm - - - - - NW 17 20 9 11 1006.9 1006.8 -
05/06:00pm - - - - - NW 17 20 9 11 1006.5 1006.4 -
05/05:30pm - - - - - WNW 15 20 8 11 1006.5 1006.4 -
05/05:00pm - - - - - W 15 20 8 11 1006.4 1006.3 -
05/04:30pm - - - - - W 17 20 9 11 1006.2 1006.1 -
05/04:00pm - - - - - W 15 19 8 10 1006.2 1006.1 -
05/03:30pm - - - - - W 15 20 8 11 1006.2 1006.1 -
05/03:00pm - - - - - W 11 15 6 8 1006.4 1006.3 -
05/02:30pm - - - - - NW 11 15 6 8 1006.8 1006.7 -
05/02:00pm - - - - - WNW 11 15 6 8 1007.0 1006.9 -
05/01:30pm - - - - - WSW 9 13 5 7 1007.2 1007.1 -
05/01:00pm - - - - - W 11 15 6 8 1007.4 1007.3 -
05/12:30pm - - - - - WSW 9 15 5 8 1007.5 1007.4 -
05/12:00pm - - - - - SW 11 17 6 9 1008.0 1007.9 -

Other Formats:

Comma delimited format used in spreadsheet applications
http://www.bom.gov.au/fwo/IDW60801/IDW60801.94210.axf

JavaScript Object Notation format (JSON) in row-major order
http://www.bom.gov.au/fwo/IDW60801/IDW60801.94210.json